sensor_id;sensor_type;location;lat;lon;timestamp;P1;durP1;ratioP1;P2;durP2;ratioP2
84353;SDS011;74538;43.522;1.516;2024-01-15T00:01:44;6.70;;;3.77;;
84353;SDS011;74538;43.522;1.516;2024-01-15T00:04:10;5.63;;;3.95;;
84353;SDS011;74538;43.522;1.516;2024-01-15T00:06:35;6.47;;;3.57;;
84353;SDS011;74538;43.522;1.516;2024-01-15T00:09:01;5.28;;;3.40;;
84353;SDS011;74538;43.522;1.516;2024-01-15T00:11:27;6.10;;;3.53;;
84353;SDS011;74538;43.522;1.516;2024-01-15T00:13:52;5.82;;;3.45;;
84353;SDS011;74538;43.522;1.516;2024-01-15T00:16:18;6.67;;;3.87;;
84353;SDS011;74538;43.522;1.516;2024-01-15T00:18:43;6.00;;;3.38;;
84353;SDS011;74538;43.522;1.516;2024-01-15T00:21:09;6.43;;;3.33;;
84353;SDS011;74538;43.522;1.516;2024-01-15T00:23:35;5.97;;;3.63;;
84353;SDS011;74538;43.522;1.516;2024-01-15T00:26:00;6.50;;;3.77;;
84353;SDS011;74538;43.522;1.516;2024-01-15T00:28:26;5.90;;;3.60;;
84353;SDS011;74538;43.522;1.516;2024-01-15T00:30:51;6.10;;;3.17;;
84353;SDS011;74538;43.522;1.516;2024-01-15T00:33:16;6.60;;;3.40;;
84353;SDS011;74538;43.522;1.516;2024-01-15T00:35:42;5.30;;;3.35;;
84353;SDS011;74538;43.522;1.516;2024-01-15T00:38:07;5.10;;;3.20;;
84353;SDS011;74538;43.522;1.516;2024-01-15T00:40:33;8.47;;;3.57;;
84353;SDS011;74538;43.522;1.516;2024-01-15T00:42:58;6.43;;;3.50;;
84353;SDS011;74538;43.522;1.516;2024-01-15T00:45:23;5.45;;;3.33;;
84353;SDS011;74538;43.522;1.516;2024-01-15T00:47:49;6.47;;;3.27;;
84353;SDS011;74538;43.522;1.516;2024-01-15T00:50:14;5.50;;;3.27;;
84353;SDS011;74538;43.522;1.516;2024-01-15T00:52:40;5.30;;;3.27;;
84353;SDS011;74538;43.522;1.516;2024-01-15T00:55:05;6.05;;;3.42;;
84353;SDS011;74538;43.522;1.516;2024-01-15T00:57:31;6.87;;;3.43;;
84353;SDS011;74538;43.522;1.516;2024-01-15T00:59:57;5.25;;;2.92;;
84353;SDS011;74538;43.522;1.516;2024-01-15T01:02:23;6.73;;;3.17;;
84353;SDS011;74538;43.522;1.516;2024-01-15T01:04:48;5.55;;;3.22;;
84353;SDS011;74538;43.522;1.516;2024-01-15T01:07:14;4.77;;;3.43;;
84353;SDS011;74538;43.522;1.516;2024-01-15T01:09:39;5.67;;;3.10;;
84353;SDS011;74538;43.522;1.516;2024-01-15T01:12:05;6.53;;;3.00;;
84353;SDS011;74538;43.522;1.516;2024-01-15T01:14:31;6.85;;;3.50;;
84353;SDS011;74538;43.522;1.516;2024-01-15T01:16:57;5.50;;;3.25;;
84353;SDS011;74538;43.522;1.516;2024-01-15T01:19:22;4.73;;;3.10;;
84353;SDS011;74538;43.522;1.516;2024-01-15T01:21:48;6.57;;;3.40;;
84353;SDS011;74538;43.522;1.516;2024-01-15T01:24:13;6.50;;;3.80;;
84353;SDS011;74538;43.522;1.516;2024-01-15T01:26:38;4.93;;;3.10;;
84353;SDS011;74538;43.522;1.516;2024-01-15T01:29:04;4.63;;;3.00;;
84353;SDS011;74538;43.522;1.516;2024-01-15T01:31:29;4.70;;;3.00;;
84353;SDS011;74538;43.522;1.516;2024-01-15T01:33:55;5.87;;;3.43;;
84353;SDS011;74538;43.522;1.516;2024-01-15T01:36:20;5.50;;;3.05;;
84353;SDS011;74538;43.522;1.516;2024-01-15T01:38:45;5.47;;;2.90;;
84353;SDS011;74538;43.522;1.516;2024-01-15T01:41:11;5.47;;;3.10;;
84353;SDS011;74538;43.522;1.516;2024-01-15T01:43:36;4.60;;;3.10;;
84353;SDS011;74538;43.522;1.516;2024-01-15T01:46:01;4.60;;;2.63;;
84353;SDS011;74538;43.522;1.516;2024-01-15T01:48:28;4.75;;;2.90;;
84353;SDS011;74538;43.522;1.516;2024-01-15T01:50:56;6.20;;;2.90;;
84353;SDS011;74538;43.522;1.516;2024-01-15T01:53:23;5.40;;;2.92;;
84353;SDS011;74538;43.522;1.516;2024-01-15T01:55:51;5.05;;;3.05;;
84353;SDS011;74538;43.522;1.516;2024-01-15T01:58:17;5.43;;;3.10;;
84353;SDS011;74538;43.522;1.516;2024-01-15T02:00:43;4.85;;;2.70;;
84353;SDS011;74538;43.522;1.516;2024-01-15T02:03:09;5.43;;;3.00;;
84353;SDS011;74538;43.522;1.516;2024-01-15T02:05:35;6.10;;;2.57;;
84353;SDS011;74538;43.522;1.516;2024-01-15T02:08:01;4.30;;;2.53;;
84353;SDS011;74538;43.522;1.516;2024-01-15T02:10:26;5.03;;;3.00;;
84353;SDS011;74538;43.522;1.516;2024-01-15T02:12:52;5.15;;;2.92;;
84353;SDS011;74538;43.522;1.516;2024-01-15T02:15:17;5.97;;;3.17;;
84353;SDS011;74538;43.522;1.516;2024-01-15T02:20:24;4.82;;;2.88;;
84353;SDS011;74538;43.522;1.516;2024-01-15T02:22:50;6.03;;;3.00;;
84353;SDS011;74538;43.522;1.516;2024-01-15T02:25:16;6.07;;;2.90;;
84353;SDS011;74538;43.522;1.516;2024-01-15T02:27:41;5.10;;;2.63;;
84353;SDS011;74538;43.522;1.516;2024-01-15T02:30:09;4.65;;;2.58;;
84353;SDS011;74538;43.522;1.516;2024-01-15T02:32:36;5.10;;;2.50;;
84353;SDS011;74538;43.522;1.516;2024-01-15T02:35:02;5.27;;;2.87;;
84353;SDS011;74538;43.522;1.516;2024-01-15T02:37:27;4.73;;;2.50;;
84353;SDS011;74538;43.522;1.516;2024-01-15T02:39:52;7.10;;;3.22;;
84353;SDS011;74538;43.522;1.516;2024-01-15T02:42:18;5.03;;;2.70;;
84353;SDS011;74538;43.522;1.516;2024-01-15T02:44:43;6.60;;;3.03;;
84353;SDS011;74538;43.522;1.516;2024-01-15T02:47:09;5.17;;;2.93;;
84353;SDS011;74538;43.522;1.516;2024-01-15T02:49:34;5.60;;;2.90;;
84353;SDS011;74538;43.522;1.516;2024-01-15T02:52:00;4.77;;;2.80;;
84353;SDS011;74538;43.522;1.516;2024-01-15T02:54:25;4.67;;;2.70;;
84353;SDS011;74538;43.522;1.516;2024-01-15T02:56:51;5.90;;;2.80;;
84353;SDS011;74538;43.522;1.516;2024-01-15T02:59:16;5.57;;;2.90;;
84353;SDS011;74538;43.522;1.516;2024-01-15T03:01:41;4.93;;;2.73;;
84353;SDS011;74538;43.522;1.516;2024-01-15T03:04:07;5.27;;;2.50;;
84353;SDS011;74538;43.522;1.516;2024-01-15T03:06:32;4.60;;;2.43;;
84353;SDS011;74538;43.522;1.516;2024-01-15T03:08:58;5.83;;;2.60;;
84353;SDS011;74538;43.522;1.516;2024-01-15T03:11:23;6.63;;;2.70;;
84353;SDS011;74538;43.522;1.516;2024-01-15T03:13:48;4.10;;;2.53;;
84353;SDS011;74538;43.522;1.516;2024-01-15T03:16:14;4.90;;;2.70;;
84353;SDS011;74538;43.522;1.516;2024-01-15T03:18:39;4.20;;;2.40;;
84353;SDS011;74538;43.522;1.516;2024-01-15T03:21:05;5.40;;;2.50;;
84353;SDS011;74538;43.522;1.516;2024-01-15T03:23:31;5.77;;;2.40;;
84353;SDS011;74538;43.522;1.516;2024-01-15T03:25:56;4.88;;;2.78;;
84353;SDS011;74538;43.522;1.516;2024-01-15T03:28:22;4.50;;;2.63;;
84353;SDS011;74538;43.522;1.516;2024-01-15T03:30:47;3.77;;;2.27;;
84353;SDS011;74538;43.522;1.516;2024-01-15T03:33:12;5.13;;;2.83;;
84353;SDS011;74538;43.522;1.516;2024-01-15T03:35:38;4.80;;;3.08;;
84353;SDS011;74538;43.522;1.516;2024-01-15T03:38:03;4.90;;;2.70;;
84353;SDS011;74538;43.522;1.516;2024-01-15T03:40:29;4.93;;;3.00;;
84353;SDS011;74538;43.522;1.516;2024-01-15T03:42:54;4.43;;;2.60;;
84353;SDS011;74538;43.522;1.516;2024-01-15T03:45:20;4.35;;;2.50;;
84353;SDS011;74538;43.522;1.516;2024-01-15T03:47:45;4.87;;;2.80;;
84353;SDS011;74538;43.522;1.516;2024-01-15T03:50:10;5.33;;;2.80;;
84353;SDS011;74538;43.522;1.516;2024-01-15T03:52:36;5.43;;;2.93;;
84353;SDS011;74538;43.522;1.516;2024-01-15T03:55:01;5.40;;;2.75;;
84353;SDS011;74538;43.522;1.516;2024-01-15T03:57:27;6.20;;;3.00;;
84353;SDS011;74538;43.522;1.516;2024-01-15T03:59:52;5.27;;;3.20;;
84353;SDS011;74538;43.522;1.516;2024-01-15T04:02:18;4.80;;;2.77;;
84353;SDS011;74538;43.522;1.516;2024-01-15T04:04:43;4.88;;;2.92;;
84353;SDS011;74538;43.522;1.516;2024-01-15T04:07:09;5.53;;;2.97;;
84353;SDS011;74538;43.522;1.516;2024-01-15T04:09:35;4.80;;;2.80;;
84353;SDS011;74538;43.522;1.516;2024-01-15T04:12:00;5.47;;;2.80;;
84353;SDS011;74538;43.522;1.516;2024-01-15T04:14:26;5.07;;;2.97;;
84353;SDS011;74538;43.522;1.516;2024-01-15T04:16:51;5.10;;;2.67;;
84353;SDS011;74538;43.522;1.516;2024-01-15T04:19:16;5.55;;;2.67;;
84353;SDS011;74538;43.522;1.516;2024-01-15T04:21:42;5.93;;;2.97;;
84353;SDS011;74538;43.522;1.516;2024-01-15T04:24:07;4.80;;;2.60;;
84353;SDS011;74538;43.522;1.516;2024-01-15T04:26:33;4.67;;;2.47;;
84353;SDS011;74538;43.522;1.516;2024-01-15T04:28:58;4.47;;;2.53;;
84353;SDS011;74538;43.522;1.516;2024-01-15T04:31:24;4.43;;;2.50;;
84353;SDS011;74538;43.522;1.516;2024-01-15T04:33:50;5.93;;;3.00;;
84353;SDS011;74538;43.522;1.516;2024-01-15T04:36:15;4.50;;;2.60;;
84353;SDS011;74538;43.522;1.516;2024-01-15T04:38:41;5.23;;;3.10;;
84353;SDS011;74538;43.522;1.516;2024-01-15T04:41:09;5.35;;;3.10;;
84353;SDS011;74538;43.522;1.516;2024-01-15T04:43:38;4.90;;;3.00;;
84353;SDS011;74538;43.522;1.516;2024-01-15T04:46:05;5.55;;;2.97;;
84353;SDS011;74538;43.522;1.516;2024-01-15T04:48:31;5.30;;;3.10;;
84353;SDS011;74538;43.522;1.516;2024-01-15T04:50:57;5.30;;;2.90;;
84353;SDS011;74538;43.522;1.516;2024-01-15T04:53:22;4.57;;;2.73;;
84353;SDS011;74538;43.522;1.516;2024-01-15T04:55:48;4.20;;;2.47;;
84353;SDS011;74538;43.522;1.516;2024-01-15T04:58:13;5.70;;;2.93;;
84353;SDS011;74538;43.522;1.516;2024-01-15T05:00:38;4.47;;;2.83;;
84353;SDS011;74538;43.522;1.516;2024-01-15T05:03:04;4.53;;;2.65;;
84353;SDS011;74538;43.522;1.516;2024-01-15T05:05:29;5.83;;;3.03;;
84353;SDS011;74538;43.522;1.516;2024-01-15T05:07:55;5.37;;;2.97;;
84353;SDS011;74538;43.522;1.516;2024-01-15T05:10:20;4.43;;;2.60;;
84353;SDS011;74538;43.522;1.516;2024-01-15T05:12:46;5.07;;;2.97;;
84353;SDS011;74538;43.522;1.516;2024-01-15T05:15:11;5.30;;;2.80;;
84353;SDS011;74538;43.522;1.516;2024-01-15T05:17:36;4.70;;;2.70;;
84353;SDS011;74538;43.522;1.516;2024-01-15T05:20:02;4.78;;;2.70;;
84353;SDS011;74538;43.522;1.516;2024-01-15T05:22:28;4.23;;;2.40;;
84353;SDS011;74538;43.522;1.516;2024-01-15T05:24:53;4.57;;;2.50;;
84353;SDS011;74538;43.522;1.516;2024-01-15T05:27:19;5.10;;;2.60;;
84353;SDS011;74538;43.522;1.516;2024-01-15T05:29:44;4.87;;;2.53;;
84353;SDS011;74538;43.522;1.516;2024-01-15T05:32:10;3.67;;;2.03;;
84353;SDS011;74538;43.522;1.516;2024-01-15T05:34:35;4.40;;;2.42;;
84353;SDS011;74538;43.522;1.516;2024-01-15T05:37:00;4.60;;;2.50;;
84353;SDS011;74538;43.522;1.516;2024-01-15T05:39:26;4.73;;;2.50;;
84353;SDS011;74538;43.522;1.516;2024-01-15T05:41:51;4.00;;;2.30;;
84353;SDS011;74538;43.522;1.516;2024-01-15T05:44:17;4.80;;;2.70;;
84353;SDS011;74538;43.522;1.516;2024-01-15T05:46:42;5.00;;;2.43;;
84353;SDS011;74538;43.522;1.516;2024-01-15T05:49:08;4.20;;;2.33;;
84353;SDS011;74538;43.522;1.516;2024-01-15T05:51:33;4.33;;;2.77;;
84353;SDS011;74538;43.522;1.516;2024-01-15T05:53:58;4.70;;;2.50;;
84353;SDS011;74538;43.522;1.516;2024-01-15T05:56:24;4.73;;;2.23;;
84353;SDS011;74538;43.522;1.516;2024-01-15T05:58:49;4.73;;;2.57;;
84353;SDS011;74538;43.522;1.516;2024-01-15T06:01:15;3.80;;;2.27;;
84353;SDS011;74538;43.522;1.516;2024-01-15T06:03:40;4.50;;;2.55;;
84353;SDS011;74538;43.522;1.516;2024-01-15T06:06:06;4.43;;;2.30;;
84353;SDS011;74538;43.522;1.516;2024-01-15T06:08:33;3.70;;;2.28;;
84353;SDS011;74538;43.522;1.516;2024-01-15T06:10:59;4.40;;;2.30;;
84353;SDS011;74538;43.522;1.516;2024-01-15T06:13:24;4.13;;;2.40;;
84353;SDS011;74538;43.522;1.516;2024-01-15T06:15:50;4.00;;;2.53;;
84353;SDS011;74538;43.522;1.516;2024-01-15T06:18:16;4.33;;;2.40;;
84353;SDS011;74538;43.522;1.516;2024-01-15T06:20:41;4.60;;;2.77;;
84353;SDS011;74538;43.522;1.516;2024-01-15T06:23:07;3.90;;;2.30;;
84353;SDS011;74538;43.522;1.516;2024-01-15T06:25:32;3.60;;;2.40;;
84353;SDS011;74538;43.522;1.516;2024-01-15T06:27:57;4.70;;;2.35;;
84353;SDS011;74538;43.522;1.516;2024-01-15T06:30:23;4.40;;;2.57;;
84353;SDS011;74538;43.522;1.516;2024-01-15T06:32:48;4.33;;;2.23;;
84353;SDS011;74538;43.522;1.516;2024-01-15T06:35:14;4.10;;;2.40;;
84353;SDS011;74538;43.522;1.516;2024-01-15T06:37:39;4.20;;;2.25;;
84353;SDS011;74538;43.522;1.516;2024-01-15T06:40:05;3.80;;;2.20;;
84353;SDS011;74538;43.522;1.516;2024-01-15T06:42:31;4.65;;;2.20;;
84353;SDS011;74538;43.522;1.516;2024-01-15T06:44:56;4.13;;;2.53;;
84353;SDS011;74538;43.522;1.516;2024-01-15T06:47:22;4.00;;;2.23;;
84353;SDS011;74538;43.522;1.516;2024-01-15T06:49:47;4.97;;;2.80;;
84353;SDS011;74538;43.522;1.516;2024-01-15T06:52:12;5.00;;;2.50;;
84353;SDS011;74538;43.522;1.516;2024-01-15T06:54:38;4.80;;;2.80;;
84353;SDS011;74538;43.522;1.516;2024-01-15T06:57:03;5.00;;;2.97;;
84353;SDS011;74538;43.522;1.516;2024-01-15T06:59:29;4.97;;;2.60;;
84353;SDS011;74538;43.522;1.516;2024-01-15T07:01:54;5.50;;;2.58;;
84353;SDS011;74538;43.522;1.516;2024-01-15T07:04:20;5.93;;;2.70;;
84353;SDS011;74538;43.522;1.516;2024-01-15T07:06:46;5.65;;;3.08;;
84353;SDS011;74538;43.522;1.516;2024-01-15T07:09:13;4.00;;;2.20;;
84353;SDS011;74538;43.522;1.516;2024-01-15T07:11:38;5.70;;;2.60;;
84353;SDS011;74538;43.522;1.516;2024-01-15T07:14:08;4.50;;;2.50;;
84353;SDS011;74538;43.522;1.516;2024-01-15T07:16:34;5.57;;;3.17;;
84353;SDS011;74538;43.522;1.516;2024-01-15T07:19:00;6.00;;;3.00;;
84353;SDS011;74538;43.522;1.516;2024-01-15T07:21:25;5.47;;;3.10;;
84353;SDS011;74538;43.522;1.516;2024-01-15T07:23:51;4.40;;;2.97;;
84353;SDS011;74538;43.522;1.516;2024-01-15T07:26:16;5.50;;;2.80;;
84353;SDS011;74538;43.522;1.516;2024-01-15T07:28:41;4.50;;;2.83;;
84353;SDS011;74538;43.522;1.516;2024-01-15T07:31:07;5.38;;;2.70;;
84353;SDS011;74538;43.522;1.516;2024-01-15T07:33:33;4.97;;;2.53;;
84353;SDS011;74538;43.522;1.516;2024-01-15T07:35:59;4.20;;;2.50;;
84353;SDS011;74538;43.522;1.516;2024-01-15T07:38:25;5.27;;;2.87;;
84353;SDS011;74538;43.522;1.516;2024-01-15T07:40:50;5.67;;;2.90;;
84353;SDS011;74538;43.522;1.516;2024-01-15T07:43:15;5.00;;;2.90;;
84353;SDS011;74538;43.522;1.516;2024-01-15T07:45:41;5.35;;;3.28;;
84353;SDS011;74538;43.522;1.516;2024-01-15T07:48:06;5.43;;;3.40;;
84353;SDS011;74538;43.522;1.516;2024-01-15T07:50:32;5.07;;;3.67;;
84353;SDS011;74538;43.522;1.516;2024-01-15T07:52:57;4.90;;;2.83;;
84353;SDS011;74538;43.522;1.516;2024-01-15T07:55:22;6.43;;;3.22;;
84353;SDS011;74538;43.522;1.516;2024-01-15T07:57:48;5.73;;;3.47;;
84353;SDS011;74538;43.522;1.516;2024-01-15T08:00:14;5.30;;;3.43;;
84353;SDS011;74538;43.522;1.516;2024-01-15T08:02:39;5.25;;;3.20;;
84353;SDS011;74538;43.522;1.516;2024-01-15T08:05:05;6.20;;;3.25;;
84353;SDS011;74538;43.522;1.516;2024-01-15T08:07:32;6.60;;;3.80;;
84353;SDS011;74538;43.522;1.516;2024-01-15T08:09:57;6.10;;;3.73;;
84353;SDS011;74538;43.522;1.516;2024-01-15T08:12:23;5.77;;;3.70;;
84353;SDS011;74538;43.522;1.516;2024-01-15T08:14:48;4.83;;;3.30;;
84353;SDS011;74538;43.522;1.516;2024-01-15T08:17:14;7.07;;;4.00;;
84353;SDS011;74538;43.522;1.516;2024-01-15T08:19:41;6.30;;;3.67;;
84353;SDS011;74538;43.522;1.516;2024-01-15T08:22:07;6.28;;;3.50;;
84353;SDS011;74538;43.522;1.516;2024-01-15T08:24:32;5.97;;;3.50;;
84353;SDS011;74538;43.522;1.516;2024-01-15T08:26:58;6.18;;;3.70;;
84353;SDS011;74538;43.522;1.516;2024-01-15T08:29:23;7.13;;;3.30;;
84353;SDS011;74538;43.522;1.516;2024-01-15T08:31:49;5.25;;;3.47;;
84353;SDS011;74538;43.522;1.516;2024-01-15T08:34:15;5.57;;;3.53;;
84353;SDS011;74538;43.522;1.516;2024-01-15T08:36:40;5.67;;;3.63;;
84353;SDS011;74538;43.522;1.516;2024-01-15T08:39:06;5.40;;;3.60;;
84353;SDS011;74538;43.522;1.516;2024-01-15T08:41:32;5.47;;;3.43;;
84353;SDS011;74538;43.522;1.516;2024-01-15T08:43:58;5.28;;;3.33;;
84353;SDS011;74538;43.522;1.516;2024-01-15T08:46:23;5.80;;;3.97;;
84353;SDS011;74538;43.522;1.516;2024-01-15T08:48:49;5.15;;;3.63;;
84353;SDS011;74538;43.522;1.516;2024-01-15T08:51:15;5.37;;;3.23;;
84353;SDS011;74538;43.522;1.516;2024-01-15T08:53:40;5.60;;;3.50;;
84353;SDS011;74538;43.522;1.516;2024-01-15T08:56:05;5.32;;;3.55;;
84353;SDS011;74538;43.522;1.516;2024-01-15T08:58:31;5.80;;;2.87;;
84353;SDS011;74538;43.522;1.516;2024-01-15T09:00:56;5.50;;;3.57;;
84353;SDS011;74538;43.522;1.516;2024-01-15T09:03:22;7.35;;;3.60;;
84353;SDS011;74538;43.522;1.516;2024-01-15T09:05:47;5.10;;;3.30;;
84353;SDS011;74538;43.522;1.516;2024-01-15T09:08:15;5.63;;;3.60;;
84353;SDS011;74538;43.522;1.516;2024-01-15T09:10:42;5.13;;;3.37;;
84353;SDS011;74538;43.522;1.516;2024-01-15T09:13:07;5.90;;;3.22;;
84353;SDS011;74538;43.522;1.516;2024-01-15T09:15:33;7.23;;;3.73;;
84353;SDS011;74538;43.522;1.516;2024-01-15T09:17:59;5.97;;;3.67;;
84353;SDS011;74538;43.522;1.516;2024-01-15T09:20:24;5.50;;;3.27;;
84353;SDS011;74538;43.522;1.516;2024-01-15T09:22:51;5.90;;;3.70;;
84353;SDS011;74538;43.522;1.516;2024-01-15T09:25:16;5.05;;;3.55;;
84353;SDS011;74538;43.522;1.516;2024-01-15T09:27:42;6.07;;;3.77;;
84353;SDS011;74538;43.522;1.516;2024-01-15T09:30:07;5.37;;;3.20;;
84353;SDS011;74538;43.522;1.516;2024-01-15T09:32:33;6.50;;;3.97;;
84353;SDS011;74538;43.522;1.516;2024-01-15T09:34:59;7.07;;;3.70;;
84353;SDS011;74538;43.522;1.516;2024-01-15T09:37:24;5.47;;;3.40;;
84353;SDS011;74538;43.522;1.516;2024-01-15T09:39:50;5.90;;;3.70;;
84353;SDS011;74538;43.522;1.516;2024-01-15T09:42:15;6.95;;;3.50;;
84353;SDS011;74538;43.522;1.516;2024-01-15T09:44:41;5.37;;;3.70;;
84353;SDS011;74538;43.522;1.516;2024-01-15T09:47:07;5.50;;;3.65;;
84353;SDS011;74538;43.522;1.516;2024-01-15T09:49:33;6.57;;;3.80;;
84353;SDS011;74538;43.522;1.516;2024-01-15T09:51:58;5.35;;;3.60;;
84353;SDS011;74538;43.522;1.516;2024-01-15T09:54:25;6.83;;;3.87;;
84353;SDS011;74538;43.522;1.516;2024-01-15T09:56:51;5.80;;;3.65;;
84353;SDS011;74538;43.522;1.516;2024-01-15T09:59:16;5.65;;;3.85;;
84353;SDS011;74538;43.522;1.516;2024-01-15T10:01:46;5.83;;;3.70;;
84353;SDS011;74538;43.522;1.516;2024-01-15T10:04:13;6.00;;;3.58;;
84353;SDS011;74538;43.522;1.516;2024-01-15T10:06:39;5.53;;;3.60;;
84353;SDS011;74538;43.522;1.516;2024-01-15T10:09:10;5.13;;;3.40;;
84353;SDS011;74538;43.522;1.516;2024-01-15T10:11:39;7.23;;;3.97;;
84353;SDS011;74538;43.522;1.516;2024-01-15T10:14:06;5.72;;;3.85;;
84353;SDS011;74538;43.522;1.516;2024-01-15T10:16:32;6.63;;;4.00;;
84353;SDS011;74538;43.522;1.516;2024-01-15T10:18:58;5.63;;;3.43;;
84353;SDS011;74538;43.522;1.516;2024-01-15T10:21:23;6.07;;;3.60;;
84353;SDS011;74538;43.522;1.516;2024-01-15T10:23:51;5.60;;;3.45;;
84353;SDS011;74538;43.522;1.516;2024-01-15T10:26:17;6.07;;;3.78;;
84353;SDS011;74538;43.522;1.516;2024-01-15T10:28:42;6.70;;;3.80;;
84353;SDS011;74538;43.522;1.516;2024-01-15T10:31:08;5.13;;;3.50;;
84353;SDS011;74538;43.522;1.516;2024-01-15T10:33:35;6.22;;;3.97;;
84353;SDS011;74538;43.522;1.516;2024-01-15T10:36:00;5.93;;;3.50;;
84353;SDS011;74538;43.522;1.516;2024-01-15T10:38:26;5.70;;;4.05;;
84353;SDS011;74538;43.522;1.516;2024-01-15T10:40:55;5.00;;;3.70;;
84353;SDS011;74538;43.522;1.516;2024-01-15T10:43:21;6.10;;;3.87;;
84353;SDS011;74538;43.522;1.516;2024-01-15T10:45:48;5.03;;;3.33;;
84353;SDS011;74538;43.522;1.516;2024-01-15T10:48:16;6.78;;;4.53;;
84353;SDS011;74538;43.522;1.516;2024-01-15T10:50:43;5.20;;;3.40;;
84353;SDS011;74538;43.522;1.516;2024-01-15T10:53:09;4.90;;;3.30;;
84353;SDS011;74538;43.522;1.516;2024-01-15T10:55:38;5.30;;;3.40;;
84353;SDS011;74538;43.522;1.516;2024-01-15T10:58:07;5.38;;;3.70;;
84353;SDS011;74538;43.522;1.516;2024-01-15T11:00:36;5.50;;;3.63;;
84353;SDS011;74538;43.522;1.516;2024-01-15T11:03:06;5.00;;;3.33;;
84353;SDS011;74538;43.522;1.516;2024-01-15T11:05:38;5.28;;;3.75;;
84353;SDS011;74538;43.522;1.516;2024-01-15T11:08:06;5.23;;;3.30;;
84353;SDS011;74538;43.522;1.516;2024-01-15T11:10:47;5.95;;;3.80;;
84353;SDS011;74538;43.522;1.516;2024-01-15T11:13:20;5.20;;;3.83;;
84353;SDS011;74538;43.522;1.516;2024-01-15T11:16:04;5.47;;;3.90;;
84353;SDS011;74538;43.522;1.516;2024-01-15T11:23:44;5.82;;;3.58;;
84353;SDS011;74538;43.522;1.516;2024-01-15T11:31:56;6.85;;;3.58;;
84353;SDS011;74538;43.522;1.516;2024-01-15T11:37:15;9.73;;;4.03;;
84353;SDS011;74538;43.522;1.516;2024-01-15T11:39:41;11.47;;;4.23;;
84353;SDS011;74538;43.522;1.516;2024-01-15T11:42:10;6.32;;;3.53;;
84353;SDS011;74538;43.522;1.516;2024-01-15T11:44:36;6.72;;;3.53;;
84353;SDS011;74538;43.522;1.516;2024-01-15T11:47:03;6.10;;;3.88;;
84353;SDS011;74538;43.522;1.516;2024-01-15T11:52:15;7.82;;;4.00;;
84353;SDS011;74538;43.522;1.516;2024-01-15T11:54:43;5.53;;;3.83;;
84353;SDS011;74538;43.522;1.516;2024-01-15T11:57:42;6.85;;;4.10;;
84353;SDS011;74538;43.522;1.516;2024-01-15T12:00:10;8.40;;;3.80;;
84353;SDS011;74538;43.522;1.516;2024-01-15T12:02:38;7.27;;;4.17;;
84353;SDS011;74538;43.522;1.516;2024-01-15T12:05:11;6.45;;;3.80;;
84353;SDS011;74538;43.522;1.516;2024-01-15T12:07:40;5.88;;;3.95;;
84353;SDS011;74538;43.522;1.516;2024-01-15T12:10:10;5.93;;;3.88;;
84353;SDS011;74538;43.522;1.516;2024-01-15T12:15:14;5.57;;;3.53;;
84353;SDS011;74538;43.522;1.516;2024-01-15T12:17:40;5.85;;;3.85;;
84353;SDS011;74538;43.522;1.516;2024-01-15T12:20:06;6.00;;;4.23;;
84353;SDS011;74538;43.522;1.516;2024-01-15T12:22:32;6.20;;;3.85;;
84353;SDS011;74538;43.522;1.516;2024-01-15T12:24:57;5.80;;;4.00;;
84353;SDS011;74538;43.522;1.516;2024-01-15T12:27:23;6.78;;;3.90;;
84353;SDS011;74538;43.522;1.516;2024-01-15T12:29:49;5.93;;;3.90;;
84353;SDS011;74538;43.522;1.516;2024-01-15T12:32:14;5.60;;;4.15;;
84353;SDS011;74538;43.522;1.516;2024-01-15T12:34:39;5.53;;;3.50;;
84353;SDS011;74538;43.522;1.516;2024-01-15T12:37:06;6.27;;;3.83;;
84353;SDS011;74538;43.522;1.516;2024-01-15T12:39:33;6.70;;;3.85;;
84353;SDS011;74538;43.522;1.516;2024-01-15T12:42:00;5.47;;;3.75;;
84353;SDS011;74538;43.522;1.516;2024-01-15T12:44:26;6.30;;;3.50;;
84353;SDS011;74538;43.522;1.516;2024-01-15T12:46:51;7.60;;;3.70;;
84353;SDS011;74538;43.522;1.516;2024-01-15T12:49:17;5.30;;;3.70;;
84353;SDS011;74538;43.522;1.516;2024-01-15T12:51:42;6.33;;;3.93;;
84353;SDS011;74538;43.522;1.516;2024-01-15T12:54:08;7.13;;;3.97;;
84353;SDS011;74538;43.522;1.516;2024-01-15T12:56:33;5.67;;;3.90;;
84353;SDS011;74538;43.522;1.516;2024-01-15T12:58:59;5.78;;;3.90;;
84353;SDS011;74538;43.522;1.516;2024-01-15T13:01:25;6.03;;;3.57;;
84353;SDS011;74538;43.522;1.516;2024-01-15T13:03:50;8.53;;;3.70;;
84353;SDS011;74538;43.522;1.516;2024-01-15T13:06:15;5.97;;;3.87;;
84353;SDS011;74538;43.522;1.516;2024-01-15T13:08:41;5.22;;;3.45;;
84353;SDS011;74538;43.522;1.516;2024-01-15T13:11:06;5.00;;;3.53;;
84353;SDS011;74538;43.522;1.516;2024-01-15T13:13:32;5.20;;;3.80;;
84353;SDS011;74538;43.522;1.516;2024-01-15T13:15:59;5.38;;;3.83;;
84353;SDS011;74538;43.522;1.516;2024-01-15T13:18:25;5.60;;;4.00;;
84353;SDS011;74538;43.522;1.516;2024-01-15T13:20:50;5.10;;;3.67;;
84353;SDS011;74538;43.522;1.516;2024-01-15T13:23:16;5.85;;;3.70;;
84353;SDS011;74538;43.522;1.516;2024-01-15T13:25:41;6.40;;;4.40;;
84353;SDS011;74538;43.522;1.516;2024-01-15T13:28:07;5.83;;;3.47;;
84353;SDS011;74538;43.522;1.516;2024-01-15T13:30:33;6.65;;;3.88;;
84353;SDS011;74538;43.522;1.516;2024-01-15T13:32:59;4.93;;;3.50;;
84353;SDS011;74538;43.522;1.516;2024-01-15T13:35:29;5.68;;;3.58;;
84353;SDS011;74538;43.522;1.516;2024-01-15T13:37:54;5.17;;;3.67;;
84353;SDS011;74538;43.522;1.516;2024-01-15T13:40:20;5.17;;;3.60;;
84353;SDS011;74538;43.522;1.516;2024-01-15T13:42:45;5.05;;;3.72;;
84353;SDS011;74538;43.522;1.516;2024-01-15T13:45:12;4.90;;;3.27;;
84353;SDS011;74538;43.522;1.516;2024-01-15T13:47:39;6.22;;;3.42;;
84353;SDS011;74538;43.522;1.516;2024-01-15T13:50:08;5.40;;;3.25;;
84353;SDS011;74538;43.522;1.516;2024-01-15T13:52:34;4.38;;;2.88;;
84353;SDS011;74538;43.522;1.516;2024-01-15T13:55:00;5.07;;;3.50;;
84353;SDS011;74538;43.522;1.516;2024-01-15T13:57:25;4.90;;;3.20;;
84353;SDS011;74538;43.522;1.516;2024-01-15T13:59:51;5.67;;;3.53;;
84353;SDS011;74538;43.522;1.516;2024-01-15T14:02:16;4.43;;;3.10;;
84353;SDS011;74538;43.522;1.516;2024-01-15T14:04:42;5.10;;;3.28;;
84353;SDS011;74538;43.522;1.516;2024-01-15T14:07:07;4.63;;;2.80;;
84353;SDS011;74538;43.522;1.516;2024-01-15T14:09:32;4.50;;;3.00;;
84353;SDS011;74538;43.522;1.516;2024-01-15T14:11:58;4.10;;;2.88;;
84353;SDS011;74538;43.522;1.516;2024-01-15T14:14:24;4.50;;;2.50;;
84353;SDS011;74538;43.522;1.516;2024-01-15T14:16:49;5.13;;;3.00;;
84353;SDS011;74538;43.522;1.516;2024-01-15T14:19:15;4.07;;;2.75;;
84353;SDS011;74538;43.522;1.516;2024-01-15T14:21:40;4.53;;;3.00;;
84353;SDS011;74538;43.522;1.516;2024-01-15T14:24:06;4.43;;;2.70;;
84353;SDS011;74538;43.522;1.516;2024-01-15T14:26:31;4.30;;;2.60;;
84353;SDS011;74538;43.522;1.516;2024-01-15T14:28:57;3.73;;;2.60;;
84353;SDS011;74538;43.522;1.516;2024-01-15T14:31:23;4.20;;;2.88;;
84353;SDS011;74538;43.522;1.516;2024-01-15T14:33:51;4.53;;;2.67;;
84353;SDS011;74538;43.522;1.516;2024-01-15T14:36:17;4.07;;;2.50;;
84353;SDS011;74538;43.522;1.516;2024-01-15T14:38:42;4.38;;;2.58;;
84353;SDS011;74538;43.522;1.516;2024-01-15T14:41:08;4.00;;;2.50;;
84353;SDS011;74538;43.522;1.516;2024-01-15T14:43:33;4.87;;;2.40;;
84353;SDS011;74538;43.522;1.516;2024-01-15T14:45:59;3.80;;;2.47;;
84353;SDS011;74538;43.522;1.516;2024-01-15T14:48:25;4.20;;;2.63;;
84353;SDS011;74538;43.522;1.516;2024-01-15T14:50:50;4.20;;;2.60;;
84353;SDS011;74538;43.522;1.516;2024-01-15T14:53:16;4.30;;;2.50;;
84353;SDS011;74538;43.522;1.516;2024-01-15T14:55:42;3.40;;;2.13;;
84353;SDS011;74538;43.522;1.516;2024-01-15T14:58:08;3.30;;;2.10;;
84353;SDS011;74538;43.522;1.516;2024-01-15T15:00:33;4.15;;;2.28;;
84353;SDS011;74538;43.522;1.516;2024-01-15T15:02:59;4.00;;;2.60;;